METAR Data
IDs: Format: Raw Decoded Include TAF

Data at: 1336 UTC 07 Jul 2020

K1M5 071315Z AUTO 21008KT 10SM CLR 27/22 A3002 RMK A01
K1M5 071255Z AUTO 21007G13KT 10SM CLR 26/22 A3001 RMK A01
K1M5 071235Z AUTO 20007KT 10SM CLR 25/22 A3000 RMK A01
K1M5 071215Z AUTO 20006KT 10SM CLR 25/22 A3000 RMK A01
K1M5 071155Z AUTO 19005KT 10SM CLR 24/22 A3000 RMK A01
K1M5 071135Z AUTO 18005KT 10SM CLR 23/22 A2999 RMK A01
K1M5 071115Z AUTO 19004KT 10SM CLR 22/22 A2999 RMK A01
K1M5 071055Z AUTO 18003KT 10SM CLR 22/21 A2999 RMK A01
K1M5 071035Z AUTO 00000KT 10SM CLR 22/21 A2999 RMK A01
K1M5 071015Z AUTO 16003KT 10SM CLR 22/21 A2999 RMK A01
K1M5 070955Z AUTO 16004KT 10SM FEW039 FEW048 22/22 A2998 RMK A01
K1M5 070935Z AUTO 18003KT 10SM FEW044 FEW050 22/22 A2998 RMK A01
K1M5 070915Z AUTO 15004KT 9SM FEW047 22/22 A2998 RMK A01
K1M5 070855Z AUTO 00000KT 9SM CLR 22/22 A2998 RMK A01
K1M5 070835Z AUTO 00000KT 9SM CLR 22/22 A2998 RMK A01
K1M5 070815Z AUTO 16004KT 10SM CLR 23/22 A2998 RMK A01
K1M5 070755Z AUTO 00000KT 10SM CLR 23/23 A2997 RMK A01
K1M5 070735Z AUTO 00000KT 7SM CLR 23/22 A2997 RMK A01
K1M5 070715Z AUTO 00000KT 10SM CLR 23/23 A2997 RMK A01
K1M5 070655Z AUTO 00000KT 10SM CLR 23/23 A2997 RMK A01
K1M5 070635Z AUTO 00000KT 9SM CLR 23/23 A2998 RMK A01
K1M5 070615Z AUTO 00000KT 8SM CLR 23/23 A2998 RMK A01
K1M5 070555Z AUTO 00000KT 10SM CLR 24/23 A2999 RMK A01
K1M5 070535Z AUTO 00000KT 10SM CLR 24/23 A3000 RMK A01
K1M5 070515Z AUTO 00000KT 10SM FEW060 24/23 A3000 RMK A01
K1M5 070455Z AUTO 00000KT 10SM CLR 24/24 A3001 RMK A01
K1M5 070435Z AUTO 00000KT 10SM CLR 24/24 A3001 RMK A01
K1M5 070415Z AUTO 00000KT 10SM FEW070 25/24 A3000 RMK A01
K1M5 070355Z AUTO 00000KT 10SM SCT070 25/24 A3000 RMK A01
K1M5 070335Z AUTO 00000KT 10SM FEW075 SCT085 25/24 A3000 RMK A01
K1M5 070315Z AUTO 00000KT 10SM FEW075 BKN085 25/24 A2999 RMK A01
K1M5 070255Z AUTO 00000KT 10SM CLR 25/24 A2999 RMK A01
K1M5 070235Z AUTO 00000KT 10SM CLR 25/24 A2999 RMK A01
K1M5 070215Z AUTO 00000KT 10SM CLR 26/24 A2998 RMK A01
K1M5 070155Z AUTO 00000KT 10SM CLR 27/23 A2998 RMK A01
K1M5 070135Z AUTO 00000KT 10SM CLR 27/23 A2998 RMK A01
K1M5 070115Z AUTO 00000KT 10SM CLR 28/24 A2998 RMK A01
K1M5 070055Z AUTO 00000KT 10SM CLR 29/23 A2998 RMK A01
K1M5 070035Z AUTO 00000KT 10SM CLR 29/23 A2997 RMK A01
K1M5 070015Z AUTO 03003KT 10SM CLR 30/23 A2996 RMK A01
K1M5 062355Z AUTO 00000KT 10SM CLR 31/22 A2996 RMK A01
K1M5 062335Z AUTO 00000KT 10SM CLR 31/23 A2996 RMK A01
K1M5 062315Z AUTO 00000KT 10SM CLR 31/22 A2996 RMK A01
K1M5 062255Z AUTO 00000KT 10SM CLR 31/22 A2996 RMK A01
K1M5 062235Z AUTO 00000KT 10SM CLR 32/22 A2996 RMK A01
K1M5 062215Z AUTO 00000KT 10SM CLR 31/22 A2996 RMK A01
K1M5 062155Z AUTO 01004KT 10SM CLR 32/22 A2996 RMK A01
K1M5 062135Z AUTO 00000KT 10SM CLR 32/21 A2996 RMK A01
K1M5 062115Z AUTO 33004KT 10SM CLR 32/20 A2997 RMK A01
K1M5 062055Z AUTO 00000KT 10SM CLR 32/21 A2997 RMK A01
K1M5 062035Z AUTO 00000KT 10SM CLR 32/20 A2998 RMK A01
K1M5 062015Z AUTO 19005KT 10SM CLR 31/20 A2999 RMK A01
K1M5 061955Z AUTO 23004KT 10SM CLR 32/22 A3000 RMK A01
K1M5 061935Z AUTO 00000KT 10SM CLR 31/22 A3000 RMK A01
K1M5 061915Z AUTO VRB04KT 10SM CLR 31/21 A3000 RMK A01
K1M5 061855Z AUTO 14004KT 10SM CLR 31/21 A3001 RMK A01
K1M5 061835Z AUTO VRB05KT 10SM CLR 30/22 A3001 RMK A01
K1M5 061815Z AUTO 12004KT 10SM CLR 29/21 A3001 RMK A01
K1M5 061755Z AUTO VRB04KT 10SM CLR 30/22 A3002 RMK A01
K1M5 061735Z AUTO VRB04KT 10SM CLR 29/23 A3003 RMK A01
K1M5 061715Z AUTO 10004KT 10SM CLR 28/23 A3003 RMK A01
K1M5 061655Z AUTO 11003KT 10SM CLR 28/23 A3003 RMK A01
K1M5 061635Z AUTO VRB03KT 10SM CLR 27/23 A3004 RMK A01
K1M5 061615Z AUTO 00000KT 10SM FEW110 26/22 A3004 RMK A01
K1M5 061555Z AUTO 06004KT 10SM FEW110 24/22 A3005 RMK A01 P0001
K1M5 061535Z AUTO 01005KT 10SM CLR 23/21 A3005 RMK A01
K1M5 061515Z AUTO 01005KT 9SM CLR 23/22 A3006 RMK A01
K1M5 061455Z AUTO 00000KT 4SM BR FEW003 FEW028 SCT035 23/22 A3007 RMK A01 P0017
K1M5 061435Z AUTO 00000KT 1SM BR BKN004 BKN028 OVC035 23/22 A3007 RMK A01
K1M5 061415Z AUTO 00000KT 10SM BKN007 OVC060 24/23 A3006 RMK A01
K1M5 061355Z AUTO VRB05KT 10SM BKN007 BKN060 24/23 A3005 RMK A01
K1M5 061335Z AUTO 28004KT 10SM BKN006 BKN060 BKN075 24/23 A3005 RMK A01
K1M5 061315Z AUTO 25006KT 10SM SCT006 OVC060 24/23 A3004 RMK A01
K1M5 061255Z AUTO 25005KT 10SM BKN060 BKN075 24/23 A3004 RMK A01
K1M5 061235Z AUTO 00000KT 9SM FEW055 SCT080 23/22 A3002 RMK A01
K1M5 061215Z AUTO 00000KT 10SM SCT080 SCT110 23/22 A3002 RMK A01
K1M5 061155Z AUTO 00000KT 10SM SCT110 22/22 A3001 RMK A01
K1M5 061135Z AUTO 00000KT 8SM FEW110 22/22 A3000 RMK A01
K1M5 061115Z AUTO 00000KT 5SM BR CLR 21/21 A2999 RMK A01
K1M5 061055Z AUTO 00000KT 8SM CLR 21/21 A2999 RMK A01
K1M5 061035Z AUTO 00000KT 7SM FEW002 21/21 A2998 RMK A01
K1M5 061015Z AUTO 00000KT 5SM BR BKN002 21/21 A2999 RMK A01
K1M5 060955Z AUTO 13003KT 3/4SM BR OVC002 21/21 A2998 RMK A01
K1M5 060935Z AUTO 00000KT 3/4SM BR OVC002 21/21 A2998 RMK A01
K1M5 060915Z AUTO 00000KT 2SM BR OVC002 21/21 A2998 RMK A01
K1M5 060855Z AUTO 00000KT 3SM BR OVC002 21/21 A2997 RMK A01
K1M5 060835Z AUTO 00000KT 2SM BR OVC002 21/21 A2996 RMK A01
K1M5 060815Z AUTO 00000KT 4SM BR BKN002 OVC047 21/21 A2996 RMK A01
K1M5 060755Z AUTO 35003KT 6SM BR SCT002 BKN048 BKN055 21/21 A2996 RMK A01
K1M5 060735Z AUTO 00000KT 5SM BR CLR 21/21 A2996 RMK A01
K1M5 060715Z AUTO 00000KT 7SM CLR 21/21 A2996 RMK A01
K1M5 060655Z AUTO 00000KT 6SM BR CLR 21/21 A2996 RMK A01
K1M5 060635Z AUTO 00000KT 7SM CLR 21/21 A2996 RMK A01
K1M5 060615Z AUTO 02004KT 7SM CLR 21/21 A2996 RMK A01
K1M5 060555Z AUTO 00000KT 8SM CLR 22/21 A2996 RMK A01
K1M5 060535Z AUTO 00000KT 10SM CLR 22/21 A2996 RMK A01
K1M5 060515Z AUTO 00000KT 10SM CLR 22/21 A2996 RMK A01
K1M5 060455Z AUTO 00000KT 10SM CLR 22/21 A2996 RMK A01
K1M5 060435Z AUTO 15003KT 10SM CLR 22/21 A2995 RMK A01
K1M5 060415Z AUTO 16004KT 10SM CLR 22/21 A2996 RMK A01
K1M5 060355Z AUTO 15005KT 10SM FEW031 FEW039 22/21 A2996 RMK A01
K1M5 060335Z AUTO 14005KT 10SM FEW033 FEW040 22/21 A2996 RMK A01
K1M5 060315Z AUTO 13005KT 10SM SCT039 22/21 A2996 RMK A01
K1M5 060255Z AUTO 15003KT 10SM FEW047 22/21 A2997 RMK A01
K1M5 060235Z AUTO 00000KT 10SM FEW036 BKN047 BKN060 22/21 A2998 RMK A01
K1M5 060215Z AUTO 00000KT 10SM FEW037 BKN045 OVC120 22/21 A2999 RMK A01
K1M5 060155Z AUTO 00000KT 10SM FEW040 FEW050 SCT090 22/21 A2998 RMK A01